Time;durP1;ratioP1;P1;durP2;ratioP2;P2;SDS_P1;SDS_P2;PMS_P1;PMS_P2;Temp;Humidity;BMP_temperature;BMP_pressure;BME280_temperature;BME280_humidity;BME280_pressure;Samples;Min_cycle;Max_cycle;Signal;HPM_P1;HPM_P2
2020/12/20 00:01:48;;;;;;;3.53;3.23;;;8.80;99.90;;;;;;4828943;29;20318;-96
2020/12/20 00:04:16;;;;;;;5.13;4.40;;;8.70;99.90;;;;;;4842159;29;20220;-96
2020/12/20 00:06:44;;;;;;;7.70;3.50;;;8.70;99.90;;;;;;4799196;29;20293;-95
2020/12/20 00:09:13;;;;;;;4.60;3.33;;;8.70;99.90;;;;;;4813994;29;20221;-96
2020/12/20 00:11:46;;;;;;;10.67;3.87;;;8.70;99.90;;;;;;4824519;29;20200;-96
2020/12/20 00:14:28;;;;;;;6.47;3.13;;;8.70;99.90;;;;;;4817701;29;20228;-95
2020/12/20 00:17:02;;;;;;;3.83;3.30;;;8.70;99.90;;;;;;4798328;29;20225;-95
2020/12/20 00:19:31;;;;;;;12.73;3.93;;;8.70;99.90;;;;;;4795131;29;20332;-96
2020/12/20 00:22:02;;;;;;;4.50;2.93;;;8.60;99.90;;;;;;4836529;29;20248;-96
2020/12/20 00:24:31;;;;;;;4.07;3.37;;;8.50;99.90;;;;;;4824336;29;20690;-96
2020/12/20 00:26:59;;;;;;;6.37;3.10;;;8.60;99.90;;;;;;4824163;29;20220;-96
2020/12/20 00:29:27;;;;;;;7.13;4.13;;;8.60;99.90;;;;;;4824894;29;20185;-96
2020/12/20 00:32:01;;;;;;;4.10;3.70;;;8.60;99.90;;;;;;5036710;23;20264;-96
2020/12/20 00:37:42;;;;;;;4.23;3.03;;;8.50;99.90;;;;;;4846652;29;20295;-96
2020/12/20 00:40:22;;;;;;;3.50;2.07;;;8.50;99.90;;;;;;4899115;23;20244;-96
2020/12/20 00:43:17;;;;;;;;;;;;;;;;;;;;;
2020/12/20 00:46:38;;;;;;;;;;;;;;;;;;;;;
2020/12/20 00:52:16;;;;;;;3.80;3.50;;;8.30;99.90;;;;;;4851491;29;20256;-96
2020/12/20 00:55:06;;;;;;;3.40;2.60;;;8.30;99.90;;;;;;4866219;29;20291;-96
2020/12/20 00:57:50;;;;;;;4.67;3.80;;;8.20;99.90;;;;;;4853684;29;20251;-96
2020/12/20 01:00:33;;;;;;;4.17;3.27;;;8.20;99.90;;;;;;4829086;29;20288;-96
2020/12/20 01:03:10;;;;;;;3.93;3.33;;;8.10;99.90;;;;;;4818322;29;20370;-96
2020/12/20 01:05:41;;;;;;;4.40;3.97;;;8.10;99.90;;;;;;4887366;23;20543;-96
2020/12/20 01:08:09;;;;;;;2.97;2.67;;;8.10;99.90;;;;;;4830515;29;20317;-96
2020/12/20 01:10:56;;;;;;;;;;;;;;;;;;;;;
2020/12/20 01:13:44;;;;;;;5.03;3.10;;;8.10;99.90;;;;;;4846676;29;20328;-96
2020/12/20 01:16:33;;;;;;;5.83;2.87;;;8.10;99.90;;;;;;4824418;29;20244;-96
2020/12/20 01:19:07;;;;;;;3.40;2.93;;;8.10;99.90;;;;;;4818322;29;20228;-96
2020/12/20 01:21:38;;;;;;;7.20;4.20;;;8.10;99.90;;;;;;4833441;29;20233;-96
2020/12/20 01:24:06;;;;;;;5.83;3.73;;;8.10;99.90;;;;;;4829991;29;20235;-96
2020/12/20 01:26:47;;;;;;;3.90;3.57;;;8.10;99.90;;;;;;4822712;29;20320;-96
2020/12/20 01:29:24;;;;;;;6.67;3.17;;;8.00;99.90;;;;;;4832124;29;20228;-96
2020/12/20 01:32:02;;;;;;;3.77;2.47;;;8.00;99.90;;;;;;4821319;29;20308;-96
2020/12/20 01:34:35;;;;;;;5.70;3.70;;;8.00;99.90;;;;;;4799911;29;20245;-96
2020/12/20 01:37:08;;;;;;;3.53;2.93;;;8.00;99.90;;;;;;4804146;29;20229;-96
2020/12/20 01:39:42;;;;;;;4.00;3.60;;;8.10;99.90;;;;;;4814629;29;20259;-96
2020/12/20 01:42:13;;;;;;;5.03;3.40;;;8.10;99.90;;;;;;4817830;29;20671;-96
2020/12/20 01:44:39;;;;;;;3.77;3.07;;;8.20;99.90;;;;;;4843971;29;20206;-96
2020/12/20 01:47:19;;;;;;;3.37;2.67;;;8.30;99.90;;;;;;4812791;29;20237;-96
2020/12/20 01:49:56;;;;;;;6.43;4.57;;;8.30;99.90;;;;;;4820793;29;20229;-96
2020/12/20 01:52:51;;;;;;;2.67;2.47;;;8.30;99.90;;;;;;4843403;29;20277;-96
2020/12/20 01:55:26;;;;;;;7.10;4.47;;;8.30;99.90;;;;;;4834880;29;20340;-96
2020/12/20 01:57:57;;;;;;;7.03;4.40;;;8.40;99.90;;;;;;4841374;29;20232;-96
2020/12/20 02:00:26;;;;;;;7.10;3.17;;;8.40;99.90;;;;;;4824732;29;20230;-96
2020/12/20 02:02:54;;;;;;;6.90;3.93;;;8.40;99.90;;;;;;4801506;29;20206;-96
2020/12/20 02:05:30;;;;;;;7.40;4.50;;;8.40;99.90;;;;;;4831759;29;20242;-96
2020/12/20 02:08:06;;;;;;;4.83;3.50;;;8.40;99.90;;;;;;4780766;29;20344;-96
2020/12/20 02:11:01;;;;;;;6.00;4.27;;;8.40;99.90;;;;;;4804242;29;20286;-96
2020/12/20 02:13:29;;;;;;;5.80;3.97;;;8.30;99.90;;;;;;4807345;29;20974;-96
2020/12/20 02:16:08;;;;;;;4.67;3.87;;;8.40;99.90;;;;;;4793047;29;20399;-96
2020/12/20 02:18:34;;;;;;;7.80;4.33;;;8.30;99.90;;;;;;4804294;29;20695;-96
2020/12/20 02:21:11;;;;;;;6.03;3.87;;;8.30;99.90;;;;;;4812618;29;20605;-96
2020/12/20 02:23:51;;;;;;;5.17;3.30;;;8.20;99.90;;;;;;4812151;29;20196;-93
2020/12/20 02:26:34;;;;;;;3.37;2.67;;;8.20;99.90;;;;;;4793647;29;20229;-96
2020/12/20 02:29:01;;;;;;;9.90;3.63;;;8.20;99.90;;;;;;4820558;29;20230;-96
2020/12/20 02:31:39;;;;;;;4.60;3.37;;;8.20;99.90;;;;;;4814420;29;20587;-96
2020/12/20 02:34:05;;;;;;;4.60;3.80;;;8.20;99.90;;;;;;4782327;29;20681;-96
2020/12/20 02:36:42;;;;;;;7.43;3.80;;;8.20;99.90;;;;;;4795895;29;20241;-96
2020/12/20 02:39:30;;;;;;;6.13;3.50;;;8.20;99.90;;;;;;4808640;29;20234;-96
2020/12/20 02:42:10;;;;;;;11.03;3.03;;;8.20;99.90;;;;;;4812195;29;20225;-96
2020/12/20 02:44:54;;;;;;;5.00;3.43;;;8.20;99.90;;;;;;4813989;29;20251;-96
2020/12/20 02:47:29;;;;;;;3.87;3.13;;;8.20;99.90;;;;;;4815272;29;20230;-96
2020/12/20 02:50:02;;;;;;;6.43;4.07;;;8.20;99.90;;;;;;4800647;29;20249;-96
2020/12/20 02:52:30;;;;;;;3.20;2.73;;;8.20;99.90;;;;;;4787269;29;20237;-96
2020/12/20 02:55:17;;;;;;;5.20;3.50;;;8.10;99.90;;;;;;4805563;29;20293;-96
2020/12/20 02:57:54;;;;;;;6.63;3.10;;;8.10;99.90;;;;;;4807075;29;20550;-96
2020/12/20 03:03:17;;;;;;;4.33;3.07;;;8.00;99.90;;;;;;4804167;29;20553;-96
2020/12/20 03:05:53;;;;;;;2.73;2.13;;;8.00;99.90;;;;;;4823497;29;20244;-96
2020/12/20 03:08:28;;;;;;;3.00;2.80;;;8.00;99.90;;;;;;4822420;29;20265;-96
2020/12/20 03:14:04;;;;;;;4.17;2.73;;;8.00;99.90;;;;;;4830499;29;20274;-96
2020/12/20 03:16:44;;;;;;;5.40;3.77;;;8.10;99.90;;;;;;4813693;29;20221;-96
2020/12/20 03:19:42;;;;;;;7.27;3.07;;;8.00;99.90;;;;;;4840005;23;20280;-95
2020/12/20 03:22:41;;;;;;;6.47;4.13;;;8.00;99.90;;;;;;4856262;29;20328;-96
2020/12/20 03:25:20;;;;;;;7.63;3.40;;;8.10;99.90;;;;;;4840083;23;20247;-96
2020/12/20 03:27:58;;;;;;;9.40;2.80;;;8.00;99.90;;;;;;4822133;29;20256;-96
2020/12/20 03:30:27;;;;;;;4.03;2.77;;;8.10;99.90;;;;;;4826563;29;20217;-96
2020/12/20 03:33:04;;;;;;;7.93;3.10;;;8.10;99.90;;;;;;4832737;29;20200;-96
2020/12/20 03:35:53;;;;;;;3.93;2.97;;;8.10;99.90;;;;;;4848097;29;20190;-96
2020/12/20 03:38:31;;;;;;;8.87;2.60;;;8.10;99.90;;;;;;4825642;29;20223;-96
2020/12/20 03:41:19;;;;;;;3.57;2.67;;;8.10;99.90;;;;;;4822364;29;20225;-96
2020/12/20 03:44:16;;;;;;;6.20;2.87;;;8.20;99.90;;;;;;4829759;29;20209;-96
2020/12/20 03:47:04;;;;;;;6.90;3.03;;;8.20;99.90;;;;;;4834119;29;20232;-96
2020/12/20 03:49:40;;;;;;;5.60;3.47;;;8.20;99.90;;;;;;4837130;29;20235;-96
2020/12/20 03:52:11;;;;;;;2.27;1.00;;;8.20;99.90;;;;;;4836368;29;20217;-96
2020/12/20 03:54:45;;;;;;;5.57;3.90;;;8.10;99.90;;;;;;4822778;29;20242;-94
2020/12/20 03:57:11;;;;;;;10.60;3.27;;;8.20;99.90;;;;;;4827517;29;20245;-96
2020/12/20 03:59:40;;;;;;;4.10;3.47;;;8.20;99.90;;;;;;4843008;29;20201;-96
2020/12/20 04:02:06;;;;;;;4.70;3.50;;;8.20;99.90;;;;;;4823961;29;20295;-96
2020/12/20 04:04:45;;;;;;;10.77;2.90;;;8.20;99.90;;;;;;4840785;29;20709;-96
2020/12/20 04:07:14;;;;;;;4.67;3.17;;;8.30;99.90;;;;;;4815479;29;20236;-96
2020/12/20 04:09:52;;;;;;;2.47;2.27;;;8.30;99.90;;;;;;4822637;29;20555;-96
2020/12/20 04:12:20;;;;;;;3.50;2.87;;;8.20;99.90;;;;;;4806553;29;20234;-96
2020/12/20 04:14:51;;;;;;;6.30;2.90;;;8.20;99.90;;;;;;4833890;29;20249;-96
2020/12/20 04:17:19;;;;;;;5.23;3.57;;;8.20;99.90;;;;;;4841964;29;20204;-96
2020/12/20 04:20:01;;;;;;;4.93;4.00;;;8.20;99.90;;;;;;4840277;29;20284;-96
2020/12/20 04:22:47;;;;;;;13.40;3.17;;;8.20;99.90;;;;;;4808056;29;20233;-96
2020/12/20 04:25:19;;;;;;;4.50;3.30;;;8.20;99.90;;;;;;4844860;29;20769;-96
2020/12/20 04:27:50;;;;;;;1.90;1.17;;;8.20;99.90;;;;;;4824683;29;20267;-96
2020/12/20 04:30:27;;;;;;;9.83;5.40;;;8.10;99.90;;;;;;4822728;29;20228;-96
2020/12/20 04:33:46;;;;;;;2.40;2.20;;;8.10;99.90;;;;;;4816352;29;21413;-96
2020/12/20 04:36:39;;;;;;;4.57;3.50;;;8.10;99.90;;;;;;4819122;29;20225;-96
2020/12/20 04:39:09;;;;;;;2.97;2.30;;;8.10;99.90;;;;;;4859830;29;20288;-96
2020/12/20 04:41:44;;;;;;;5.60;3.40;;;8.10;99.90;;;;;;4827167;29;20224;-96
2020/12/20 04:44:10;;;;;;;5.07;2.97;;;8.10;99.90;;;;;;4792495;29;20225;-96
2020/12/20 04:46:43;;;;;;;3.67;3.33;;;8.10;99.90;;;;;;4819309;29;20298;-96
2020/12/20 04:49:14;;;;;;;9.47;4.37;;;8.10;99.90;;;;;;4840337;29;20237;-96
2020/12/20 04:51:43;;;;;;;5.53;3.37;;;8.30;99.90;;;;;;4815500;29;20237;-96
2020/12/20 04:54:12;;;;;;;4.50;4.10;;;8.20;99.90;;;;;;4841693;29;20227;-96
2020/12/20 04:56:52;;;;;;;4.13;2.43;;;8.20;99.90;;;;;;4845993;29;20193;-96
2020/12/20 04:59:22;;;;;;;3.87;3.20;;;8.10;99.90;;;;;;4844655;29;21393;-96
2020/12/20 05:01:50;;;;;;;4.83;3.20;;;8.20;99.90;;;;;;4840484;29;20228;-96
2020/12/20 05:04:19;;;;;;;7.57;4.13;;;8.20;99.90;;;;;;4828278;29;20225;-96
2020/12/20 05:06:53;;;;;;;6.53;2.97;;;8.20;99.90;;;;;;4811407;29;20244;-96
2020/12/20 05:09:33;;;;;;;3.87;3.57;;;8.10;99.90;;;;;;4833408;29;20730;-96
2020/12/20 05:12:27;;;;;;;5.23;2.43;;;8.10;99.90;;;;;;4830532;29;20297;-96
2020/12/20 05:15:25;;;;;;;5.47;2.97;;;8.10;99.90;;;;;;4819616;29;20201;-96
2020/12/20 05:18:22;;;;;;;4.77;2.63;;;8.10;99.90;;;;;;4832221;29;20192;-96
2020/12/20 05:20:55;;;;;;;5.50;4.13;;;8.10;99.90;;;;;;4828184;29;20189;-96
2020/12/20 05:23:31;;;;;;;2.93;2.40;;;8.10;99.90;;;;;;4842144;29;20191;-96
2020/12/20 05:26:29;;;;;;;7.53;3.27;;;8.10;99.90;;;;;;4847647;29;20335;-96
2020/12/20 05:29:24;;;;;;;;;;;;;;;;;;;;;
2020/12/20 05:32:16;;;;;;;2.97;2.23;;;8.00;99.90;;;;;;4834489;29;20268;-96
2020/12/20 05:34:57;;;;;;;3.33;3.03;;;8.00;99.90;;;;;;4808986;29;20311;-96
2020/12/20 05:37:55;;;;;;;5.93;3.23;;;8.00;99.90;;;;;;4844582;29;20315;-96
2020/12/20 05:40:32;;;;;;;4.20;3.30;;;8.00;99.90;;;;;;4858885;29;20232;-96
2020/12/20 05:43:11;;;;;;;3.33;2.33;;;8.00;99.90;;;;;;4838028;29;20224;-96
2020/12/20 05:45:39;;;;;;;3.37;1.77;;;8.00;99.90;;;;;;4811684;29;20231;-96
2020/12/20 05:48:31;;;;;;;3.20;2.27;;;8.00;99.90;;;;;;4863591;23;20643;-96
2020/12/20 05:51:07;;;;;;;5.17;2.47;;;8.00;99.90;;;;;;4862436;29;20197;-96
2020/12/20 05:53:38;;;;;;;6.27;2.20;;;7.90;99.90;;;;;;4858156;29;20185;-96
2020/12/20 05:56:16;;;;;;;3.83;2.93;;;7.90;99.90;;;;;;4829223;29;20515;-96
2020/12/20 05:59:05;;;;;;;4.37;3.27;;;7.90;99.90;;;;;;4860775;29;20227;-96
2020/12/20 06:01:34;;;;;;;2.00;1.83;;;7.90;99.90;;;;;;4870333;29;20220;-95
2020/12/20 06:04:21;;;;;;;2.13;1.83;;;7.90;99.90;;;;;;4826660;29;20204;-96
2020/12/20 06:06:58;;;;;;;2.93;2.70;;;7.90;99.90;;;;;;4828743;29;20258;-96
2020/12/20 06:09:35;;;;;;;4.13;3.03;;;7.90;99.90;;;;;;4825584;29;20652;-96
2020/12/20 06:12:19;;;;;;;4.97;3.27;;;7.90;99.90;;;;;;4823497;29;20298;-96
2020/12/20 06:14:51;;;;;;;3.83;2.83;;;7.90;99.90;;;;;;4829875;29;20189;-96
2020/12/20 06:17:49;;;;;;;3.63;3.17;;;7.90;99.90;;;;;;4860354;29;20621;-96
2020/12/20 06:20:30;;;;;;;3.03;2.73;;;7.90;99.90;;;;;;4823608;29;20231;-96
2020/12/20 06:23:06;;;;;;;5.00;2.93;;;7.80;99.90;;;;;;4850784;29;20632;-96
2020/12/20 06:25:48;;;;;;;10.03;3.83;;;7.80;99.90;;;;;;4832431;29;20542;-96
2020/12/20 06:28:22;;;;;;;6.77;2.87;;;7.80;99.90;;;;;;4837313;29;20273;-96
2020/12/20 06:31:02;;;;;;;3.83;2.50;;;7.80;99.90;;;;;;4839486;29;20573;-96
2020/12/20 06:33:42;;;;;;;10.67;3.83;;;7.90;99.90;;;;;;4858115;29;20346;-96
2020/12/20 06:36:36;;;;;;;4.63;3.17;;;7.80;99.90;;;;;;4844705;29;20519;-96
2020/12/20 06:39:42;;;;;;;3.17;2.77;;;7.80;99.90;;;;;;4833487;29;20228;-96
2020/12/20 06:42:10;;;;;;;8.53;4.67;;;7.80;99.90;;;;;;4829638;29;20347;-96
2020/12/20 06:45:06;;;;;;;3.00;2.37;;;7.90;99.90;;;;;;4853172;29;20268;-96
2020/12/20 06:50:54;;;;;;;4.60;2.60;;;7.90;99.90;;;;;;4846667;29;20221;-96
2020/12/20 06:53:46;;;;;;;6.43;4.57;;;7.90;99.90;;;;;;4857240;29;20185;-96
2020/12/20 06:56:28;;;;;;;4.07;2.43;;;7.90;99.90;;;;;;4819140;29;20545;-96
2020/12/20 06:59:10;;;;;;;4.43;3.90;;;7.90;99.90;;;;;;4829870;29;20272;-96
2020/12/20 07:01:53;;;;;;;3.93;2.80;;;7.90;99.90;;;;;;4844699;29;20220;-96
2020/12/20 07:04:42;;;;;;;5.97;3.53;;;7.90;99.90;;;;;;4845947;23;20624;-95
2020/12/20 07:07:19;;;;;;;4.93;3.87;;;8.00;99.90;;;;;;4849646;29;20240;-96
2020/12/20 07:09:48;;;;;;;8.77;3.10;;;7.90;99.90;;;;;;4830655;29;20291;-96
2020/12/20 07:12:44;;;;;;;3.10;2.50;;;8.00;99.90;;;;;;4832439;29;20221;-96
2020/12/20 07:16:05;;;;;;;6.67;4.43;;;8.00;99.90;;;;;;4833330;23;20241;-96
2020/12/20 07:18:55;;;;;;;17.43;4.27;;;8.00;99.90;;;;;;4808726;29;20252;-96
2020/12/20 07:21:33;;;;;;;8.07;2.70;;;8.00;99.90;;;;;;4828500;29;20258;-96
2020/12/20 07:24:17;;;;;;;5.27;4.67;;;8.10;99.90;;;;;;4857610;29;20293;-96
2020/12/20 07:26:45;;;;;;;5.23;3.13;;;8.10;99.90;;;;;;4839668;29;20686;-95
2020/12/20 07:29:11;;;;;;;6.63;5.13;;;8.10;99.90;;;;;;4851486;29;20201;-94
2020/12/20 07:31:37;;;;;;;3.03;2.57;;;8.10;99.90;;;;;;4840963;29;20220;-93
2020/12/20 07:34:07;;;;;;;6.10;3.00;;;8.10;99.90;;;;;;4829953;29;20375;-94
2020/12/20 07:36:34;;;;;;;5.03;4.40;;;8.10;99.90;;;;;;4854975;29;20223;-95
2020/12/20 07:39:00;;;;;;;8.63;3.60;;;8.10;99.90;;;;;;4842410;29;20714;-93
2020/12/20 07:41:26;;;;;;;9.30;3.33;;;8.10;99.90;;;;;;4858469;29;20196;-95
2020/12/20 07:43:56;;;;;;;9.03;3.03;;;8.00;99.90;;;;;;4841195;29;20223;-95
2020/12/20 07:46:22;;;;;;;5.47;4.97;;;8.00;99.90;;;;;;4833010;29;20323;-95
2020/12/20 07:48:48;;;;;;;4.37;3.43;;;7.90;99.90;;;;;;4841505;29;20318;-94
2020/12/20 07:51:20;;;;;;;3.43;3.10;;;7.90;99.90;;;;;;4840034;29;20265;-95
2020/12/20 07:53:51;;;;;;;5.30;3.37;;;7.90;99.90;;;;;;4817412;29;20745;-95
2020/12/20 07:56:24;;;;;;;6.57;4.63;;;7.90;99.90;;;;;;4840538;29;20198;-95
2020/12/20 07:58:52;;;;;;;8.17;3.63;;;7.90;99.90;;;;;;4817732;29;20340;-95
2020/12/20 08:01:18;;;;;;;5.30;3.30;;;7.90;99.90;;;;;;4839346;29;20374;-96
2020/12/20 08:03:44;;;;;;;4.33;3.10;;;8.00;99.90;;;;;;4845374;29;21041;-95
2020/12/20 08:06:12;;;;;;;5.33;4.43;;;8.00;99.90;;;;;;4835051;29;20232;-95
2020/12/20 08:08:42;;;;;;;4.50;3.17;;;7.90;99.90;;;;;;4834176;29;20188;-95
2020/12/20 08:11:27;;;;;;;7.23;3.57;;;7.90;99.90;;;;;;4843684;29;20347;-94
2020/12/20 08:13:58;;;;;;;7.10;3.20;;;7.90;99.90;;;;;;4859117;29;20303;-95
2020/12/20 08:16:26;;;;;;;4.23;2.83;;;7.90;99.90;;;;;;4859761;29;20259;-95
2020/12/20 08:18:56;;;;;;;4.57;2.80;;;7.90;99.90;;;;;;4846765;29;20229;-96
2020/12/20 08:21:40;;;;;;;5.97;3.93;;;7.90;99.90;;;;;;4837091;29;20232;-95
2020/12/20 08:24:07;;;;;;;8.87;3.70;;;7.90;99.90;;;;;;4843057;29;20224;-92
2020/12/20 08:26:36;;;;;;;4.70;4.30;;;7.90;99.90;;;;;;4850814;29;20226;-94
2020/12/20 08:29:02;;;;;;;5.43;3.00;;;7.80;99.90;;;;;;4830728;29;20255;-96
2020/12/20 08:31:44;;;;;;;3.67;3.33;;;7.90;99.90;;;;;;4821233;29;20312;-95
2020/12/20 08:34:21;;;;;;;5.83;2.67;;;8.00;99.90;;;;;;4822995;29;20836;-94
2020/12/20 08:36:50;;;;;;;3.20;2.87;;;8.00;99.90;;;;;;4837650;29;20220;-96
2020/12/20 08:39:16;;;;;;;4.07;3.70;;;8.00;99.90;;;;;;4853801;29;20248;-96
2020/12/20 08:42:01;;;;;;;3.13;2.00;;;8.10;99.90;;;;;;4848773;29;20185;-96
2020/12/20 08:44:37;;;;;;;5.67;3.37;;;8.10;99.90;;;;;;4860668;29;20326;-95
2020/12/20 08:47:09;;;;;;;4.23;3.30;;;8.20;99.90;;;;;;4833656;29;20225;-95
2020/12/20 08:49:36;;;;;;;5.30;2.90;;;8.20;99.90;;;;;;4855949;29;20685;-96
2020/12/20 08:52:11;;;;;;;9.23;3.73;;;8.30;99.90;;;;;;4844177;29;20231;-96
2020/12/20 08:54:40;;;;;;;11.77;2.87;;;8.30;99.90;;;;;;4858109;29;20563;-94
2020/12/20 08:57:09;;;;;;;5.93;3.23;;;8.30;99.90;;;;;;4844384;29;20288;-95
2020/12/20 08:59:38;;;;;;;6.00;3.50;;;8.30;99.90;;;;;;4844037;29;20827;-95
2020/12/20 09:02:06;;;;;;;3.20;2.70;;;8.40;99.90;;;;;;4843886;29;20212;-94
2020/12/20 09:04:47;;;;;;;;;;;;;;;;;;;;;
2020/12/20 09:07:16;;;;;;;9.20;3.33;;;8.40;99.90;;;;;;4859473;29;20287;-96
2020/12/20 09:09:44;;;;;;;9.53;3.63;;;8.40;99.90;;;;;;4844016;29;20232;-93
2020/12/20 09:12:13;;;;;;;4.23;3.23;;;8.50;99.90;;;;;;4842396;29;20220;-95
2020/12/20 09:14:57;;;;;;;7.57;3.30;;;8.50;99.90;;;;;;4846512;29;20248;-94
2020/12/20 09:17:49;;;;;;;4.73;3.23;;;8.60;99.90;;;;;;4821787;29;20223;-94
2020/12/20 09:20:21;;;;;;;6.33;3.03;;;8.60;99.90;;;;;;4851879;29;20313;-91
2020/12/20 09:22:57;;;;;;;7.77;4.13;;;8.60;99.90;;;;;;4843384;29;20216;-94
2020/12/20 09:25:38;;;;;;;5.40;3.17;;;8.70;99.90;;;;;;4828538;29;20625;-94
2020/12/20 09:28:06;;;;;;;10.00;4.27;;;8.70;99.90;;;;;;4840790;29;20759;-95
2020/12/20 09:30:48;;;;;;;11.93;3.20;;;8.70;99.90;;;;;;4842759;29;20235;-95
2020/12/20 09:33:18;;;;;;;4.73;2.93;;;8.60;99.90;;;;;;4834081;29;20228;-95
2020/12/20 09:36:03;;;;;;;3.03;2.23;;;8.60;99.90;;;;;;4842869;29;20200;-96
2020/12/20 09:38:41;;;;;;;10.90;4.10;;;8.70;99.90;;;;;;4862912;29;20195;-90
2020/12/20 09:41:17;;;;;;;2.43;2.13;;;8.70;99.90;;;;;;4847613;29;20223;-96
2020/12/20 09:43:44;;;;;;;4.60;3.37;;;8.70;99.90;;;;;;4845204;29;21245;-89
2020/12/20 09:46:22;;;;;;;8.47;4.23;;;8.70;99.90;;;;;;4824712;29;20277;-89
2020/12/20 09:48:49;;;;;;;6.73;4.10;;;8.70;99.90;;;;;;4850323;29;20800;-89
2020/12/20 09:51:16;;;;;;;7.07;2.87;;;8.70;99.90;;;;;;4858673;29;20236;-89
2020/12/20 09:53:41;;;;;;;4.30;3.77;;;8.80;99.90;;;;;;4859437;29;20220;-90
2020/12/20 09:56:07;;;;;;;5.20;4.70;;;8.80;99.90;;;;;;4828854;29;20654;-89
2020/12/20 09:58:33;;;;;;;3.73;3.43;;;8.80;99.90;;;;;;4826966;29;20885;-90
2020/12/20 10:00:59;;;;;;;4.00;3.60;;;8.90;99.90;;;;;;4844167;29;20738;-90
2020/12/20 10:03:27;;;;;;;9.77;3.30;;;9.00;99.90;;;;;;4813847;29;20227;-89
2020/12/20 10:05:55;;;;;;;5.20;3.57;;;9.00;99.90;;;;;;4839073;29;20194;-91
2020/12/20 10:08:22;;;;;;;5.67;3.80;;;9.10;99.90;;;;;;4838429;29;20681;-92
2020/12/20 10:10:51;;;;;;;5.80;3.60;;;9.20;99.90;;;;;;4839927;29;20302;-90
2020/12/20 10:13:16;;;;;;;4.47;3.53;;;9.20;99.90;;;;;;4839248;29;20239;-89
2020/12/20 10:15:42;;;;;;;6.43;3.27;;;9.20;99.90;;;;;;4824169;29;20239;-91
2020/12/20 10:18:08;;;;;;;8.33;4.00;;;9.20;99.90;;;;;;4820677;29;20263;-91
2020/12/20 10:20:34;;;;;;;11.57;3.60;;;9.20;99.90;;;;;;4823784;29;20197;-90
2020/12/20 10:23:00;;;;;;;6.67;3.03;;;9.20;99.90;;;;;;4836284;29;20267;-91
2020/12/20 10:25:26;;;;;;;4.87;4.37;;;9.20;99.90;;;;;;4839275;29;20216;-89
2020/12/20 10:27:56;;;;;;;15.33;4.43;;;9.20;99.90;;;;;;4839703;29;20706;-90
2020/12/20 10:30:23;;;;;;;8.20;3.67;;;9.30;99.90;;;;;;4839661;29;20228;-89
2020/12/20 10:32:49;;;;;;;3.47;2.47;;;9.30;99.90;;;;;;4856431;29;20193;-88
2020/12/20 10:35:16;;;;;;;3.87;2.77;;;9.40;99.90;;;;;;4858216;29;20189;-92
2020/12/20 10:37:41;;;;;;;7.60;3.77;;;9.30;99.90;;;;;;4841727;29;20327;-91
2020/12/20 10:40:07;;;;;;;13.00;3.50;;;9.40;99.90;;;;;;4856495;29;20633;-90
2020/12/20 10:42:33;;;;;;;9.60;3.57;;;9.40;99.90;;;;;;4842482;29;20236;-89
2020/12/20 10:44:59;;;;;;;10.67;4.27;;;9.40;99.90;;;;;;4844131;29;20196;-90
2020/12/20 10:47:25;;;;;;;9.10;2.93;;;9.50;99.90;;;;;;4843280;29;20240;-90
2020/12/20 10:49:51;;;;;;;5.10;2.83;;;9.60;99.90;;;;;;4841750;29;20320;-91
2020/12/20 10:52:17;;;;;;;4.53;3.10;;;9.50;99.90;;;;;;4842832;29;20262;-88
2020/12/20 10:54:44;;;;;;;9.80;4.60;;;9.50;99.90;;;;;;4827429;29;20223;-89
2020/12/20 10:57:10;;;;;;;8.07;2.93;;;9.50;99.90;;;;;;4854494;29;20288;-91
2020/12/20 10:59:36;;;;;;;4.73;2.97;;;9.50;99.90;;;;;;4859515;29;21023;-88
2020/12/20 11:02:02;;;;;;;2.17;2.07;;;9.50;99.90;;;;;;4842021;29;20301;-89
2020/12/20 11:04:28;;;;;;;4.67;2.27;;;9.50;99.90;;;;;;4856265;29;20245;-88
2020/12/20 11:06:55;;;;;;;6.00;3.43;;;9.50;99.90;;;;;;4826246;29;20236;-89
2020/12/20 11:09:23;;;;;;;4.93;2.57;;;9.60;99.90;;;;;;4841581;29;20237;-88
2020/12/20 11:11:48;;;;;;;7.70;2.20;;;9.60;99.90;;;;;;4858560;29;21024;-90
2020/12/20 11:14:14;;;;;;;23.37;4.67;;;9.70;99.90;;;;;;4827956;29;20196;-91
2020/12/20 11:16:40;;;;;;;7.83;3.40;;;9.70;99.90;;;;;;4824330;29;20239;-91
2020/12/20 11:19:06;;;;;;;12.87;3.50;;;9.70;99.90;;;;;;4824437;29;20236;-89
2020/12/20 11:21:32;;;;;;;7.63;3.27;;;9.70;99.90;;;;;;4842348;29;21002;-89
2020/12/20 11:23:58;;;;;;;7.67;3.33;;;9.70;99.90;;;;;;4824420;29;20189;-89
2020/12/20 11:26:24;;;;;;;3.77;2.87;;;9.70;99.90;;;;;;4828980;29;20208;-89
2020/12/20 11:28:52;;;;;;;7.00;3.10;;;9.70;99.90;;;;;;4841592;29;20234;-90
2020/12/20 11:31:23;;;;;;;7.20;3.07;;;9.70;99.90;;;;;;4825608;29;20216;-90
2020/12/20 11:33:50;;;;;;;3.90;2.57;;;9.80;99.90;;;;;;4856521;29;20802;-90
2020/12/20 11:36:24;;;;;;;5.43;2.93;;;9.80;99.90;;;;;;4813607;29;20274;-90
2020/12/20 11:38:51;;;;;;;7.60;2.20;;;9.80;99.90;;;;;;4846793;29;20206;-90
2020/12/20 11:41:25;;;;;;;19.20;3.10;;;9.70;99.90;;;;;;4845358;29;20188;-90
2020/12/20 11:43:55;;;;;;;4.47;2.47;;;9.70;99.90;;;;;;4842497;29;20303;-91
2020/12/20 11:46:21;;;;;;;2.90;2.63;;;9.70;99.90;;;;;;4826231;29;20243;-90
2020/12/20 11:48:48;;;;;;;5.97;3.13;;;9.70;99.90;;;;;;4827704;29;20239;-89
2020/12/20 11:51:15;;;;;;;3.00;2.10;;;9.80;99.90;;;;;;4846903;29;20284;-88
2020/12/20 11:53:41;;;;;;;5.77;3.30;;;9.70;99.90;;;;;;4842323;29;20208;-91
2020/12/20 11:56:08;;;;;;;4.50;3.50;;;9.70;99.90;;;;;;4826592;29;21138;-90
2020/12/20 11:58:34;;;;;;;7.50;3.03;;;9.70;99.90;;;;;;4822433;29;20228;-89
2020/12/20 12:01:00;;;;;;;2.90;2.43;;;9.60;99.90;;;;;;4826563;29;20220;-90
2020/12/20 12:03:26;;;;;;;6.27;3.27;;;9.60;99.90;;;;;;4840188;29;20529;-91
2020/12/20 12:05:52;;;;;;;10.93;3.90;;;9.50;99.90;;;;;;4847002;29;20373;-90
2020/12/20 12:08:18;;;;;;;7.10;2.67;;;9.50;99.90;;;;;;4843442;29;20353;-88
2020/12/20 12:10:46;;;;;;;3.67;2.60;;;9.50;99.90;;;;;;4840448;29;20280;-89
2020/12/20 12:13:13;;;;;;;3.53;2.03;;;9.50;99.90;;;;;;4841974;29;20232;-88
2020/12/20 12:15:40;;;;;;;5.70;2.53;;;9.40;99.90;;;;;;4841276;29;20320;-89
2020/12/20 12:18:06;;;;;;;5.27;2.77;;;9.40;99.90;;;;;;4826201;29;20335;-88
2020/12/20 12:20:32;;;;;;;8.97;3.03;;;9.40;99.90;;;;;;4826495;29;20632;-89
2020/12/20 12:22:58;;;;;;;16.77;4.40;;;9.40;99.90;;;;;;4841369;29;20249;-89
2020/12/20 12:25:24;;;;;;;4.73;3.10;;;9.50;99.90;;;;;;4840543;29;20217;-90
2020/12/20 12:27:50;;;;;;;5.10;3.00;;;9.40;99.90;;;;;;4823960;29;20244;-90
2020/12/20 12:30:21;;;;;;;9.73;3.43;;;9.50;99.90;;;;;;4839992;29;20281;-87
2020/12/20 12:32:47;;;;;;;4.50;2.70;;;9.40;99.90;;;;;;4841509;29;20180;-90
2020/12/20 12:35:13;;;;;;;8.33;3.00;;;9.50;99.90;;;;;;4843587;29;20195;-88
2020/12/20 12:37:39;;;;;;;4.33;2.83;;;9.50;99.90;;;;;;4856655;29;20233;-89
2020/12/20 12:40:06;;;;;;;5.50;2.97;;;9.50;99.90;;;;;;4811211;29;20239;-90
2020/12/20 12:42:32;;;;;;;5.83;2.70;;;9.50;99.90;;;;;;4855009;29;20216;-90
2020/12/20 12:44:58;;;;;;;10.30;3.37;;;9.40;99.90;;;;;;4839650;29;20192;-91
2020/12/20 12:47:24;;;;;;;7.47;3.97;;;9.40;99.90;;;;;;4844253;29;20204;-89
2020/12/20 12:49:50;;;;;;;7.10;4.33;;;9.50;99.90;;;;;;4844648;29;20234;-90
2020/12/20 12:52:16;;;;;;;8.80;3.37;;;9.40;99.90;;;;;;4858022;29;20238;-90
2020/12/20 12:54:41;;;;;;;8.30;2.63;;;9.40;99.90;;;;;;4859800;29;20291;-89
2020/12/20 12:57:07;;;;;;;3.93;3.53;;;9.40;99.90;;;;;;4859580;29;20224;-91
2020/12/20 12:59:33;;;;;;;10.30;5.27;;;9.40;99.90;;;;;;4845832;29;20192;-89
2020/12/20 13:01:59;;;;;;;9.53;4.27;;;9.40;99.90;;;;;;4842622;29;21514;-89
2020/12/20 13:04:25;;;;;;;9.70;4.33;;;9.40;99.90;;;;;;4860952;29;20231;-89
2020/12/20 13:06:54;;;;;;;8.13;4.37;;;9.40;99.90;;;;;;4844629;29;20267;-89
2020/12/20 13:09:21;;;;;;;5.07;4.37;;;9.40;99.90;;;;;;4844996;29;20306;-89
2020/12/20 13:11:47;;;;;;;7.20;5.33;;;9.50;99.90;;;;;;4844346;29;20678;-91
2020/12/20 13:14:13;;;;;;;8.57;5.63;;;9.50;99.90;;;;;;4845314;29;20192;-89
2020/12/20 13:16:39;;;;;;;7.20;4.07;;;9.50;99.90;;;;;;4844670;29;20275;-90
2020/12/20 13:19:05;;;;;;;5.40;3.63;;;9.50;99.90;;;;;;4828093;29;20606;-89
2020/12/20 13:21:31;;;;;;;9.83;4.93;;;9.50;99.90;;;;;;4842642;29;20295;-90
2020/12/20 13:23:56;;;;;;;5.13;4.37;;;9.50;99.90;;;;;;4830009;29;21225;-90
2020/12/20 13:26:23;;;;;;;5.07;4.57;;;9.50;99.90;;;;;;4863154;29;20180;-89
2020/12/20 13:28:49;;;;;;;5.27;4.40;;;9.50;99.90;;;;;;4828213;29;20232;-88
2020/12/20 13:31:20;;;;;;;9.87;5.67;;;9.50;99.90;;;;;;4841383;29;20296;-89
2020/12/20 13:33:47;;;;;;;8.37;4.40;;;9.60;99.90;;;;;;4843410;29;21154;-91
2020/12/20 13:36:13;;;;;;;11.57;5.47;;;9.60;99.90;;;;;;4843086;29;20228;-89
2020/12/20 13:38:39;;;;;;;8.07;4.17;;;9.50;99.90;;;;;;4828642;29;20193;-91
2020/12/20 13:41:05;;;;;;;7.23;6.13;;;9.50;99.90;;;;;;4844442;29;20220;-90
2020/12/20 13:43:32;;;;;;;17.37;7.07;;;9.50;99.90;;;;;;4842389;29;20235;-90
2020/12/20 13:45:58;;;;;;;9.33;6.93;;;9.50;99.90;;;;;;4827303;29;20697;-89
2020/12/20 13:48:24;;;;;;;7.33;4.27;;;9.40;99.90;;;;;;4841964;29;20231;-90
2020/12/20 13:50:51;;;;;;;6.17;4.07;;;9.40;99.90;;;;;;4842319;29;20253;-90
2020/12/20 13:53:17;;;;;;;6.37;4.63;;;9.40;99.90;;;;;;4841923;29;20208;-89